sensor_id;sensor_type;location;lat;lon;timestamp;P1;durP1;ratioP1;P2;durP2;ratioP2
53642;SDS011;39546;45.534;12.048;2022-08-01T00:04:35;2.33;;;0.90;;
53642;SDS011;39546;45.534;12.048;2022-08-01T00:10:37;6.68;;;1.95;;
53642;SDS011;39546;45.534;12.048;2022-08-01T00:16:39;1.90;;;1.17;;
53642;SDS011;39546;45.534;12.048;2022-08-01T00:22:41;1.27;;;1.02;;
53642;SDS011;39546;45.534;12.048;2022-08-01T00:28:43;2.50;;;1.40;;
53642;SDS011;39546;45.534;12.048;2022-08-01T00:34:45;1.87;;;1.20;;
53642;SDS011;39546;45.534;12.048;2022-08-01T00:40:47;3.67;;;1.15;;
53642;SDS011;39546;45.534;12.048;2022-08-01T00:46:49;2.97;;;1.42;;
53642;SDS011;39546;45.534;12.048;2022-08-01T00:52:51;3.53;;;1.62;;
53642;SDS011;39546;45.534;12.048;2022-08-01T00:58:55;2.22;;;1.33;;
53642;SDS011;39546;45.534;12.048;2022-08-01T01:04:57;2.53;;;0.93;;
53642;SDS011;39546;45.534;12.048;2022-08-01T01:11:09;3.62;;;1.10;;
53642;SDS011;39546;45.534;12.048;2022-08-01T01:17:20;1.55;;;1.27;;
53642;SDS011;39546;45.534;12.048;2022-08-01T01:30:08;3.53;;;1.92;;
53642;SDS011;39546;45.534;12.048;2022-08-01T01:36:10;2.75;;;1.50;;
53642;SDS011;39546;45.534;12.048;2022-08-01T01:42:14;3.97;;;2.22;;
53642;SDS011;39546;45.534;12.048;2022-08-01T01:48:19;2.37;;;1.40;;
53642;SDS011;39546;45.534;12.048;2022-08-01T01:54:24;3.47;;;2.08;;
53642;SDS011;39546;45.534;12.048;2022-08-01T02:00:31;3.42;;;1.90;;
53642;SDS011;39546;45.534;12.048;2022-08-01T02:06:34;2.90;;;1.77;;
53642;SDS011;39546;45.534;12.048;2022-08-01T02:12:39;3.42;;;2.05;;
53642;SDS011;39546;45.534;12.048;2022-08-01T02:18:46;3.67;;;1.90;;
53642;SDS011;39546;45.534;12.048;2022-08-01T02:25:01;3.35;;;1.92;;
53642;SDS011;39546;45.534;12.048;2022-08-01T02:31:13;4.03;;;2.28;;
53642;SDS011;39546;45.534;12.048;2022-08-01T02:37:18;3.78;;;2.08;;
53642;SDS011;39546;45.534;12.048;2022-08-01T02:43:22;6.40;;;2.42;;
53642;SDS011;39546;45.534;12.048;2022-08-01T02:49:48;2.97;;;1.67;;
53642;SDS011;39546;45.534;12.048;2022-08-01T02:55:51;6.03;;;2.00;;
53642;SDS011;39546;45.534;12.048;2022-08-01T03:01:55;7.85;;;2.42;;
53642;SDS011;39546;45.534;12.048;2022-08-01T03:07:58;3.72;;;2.37;;
53642;SDS011;39546;45.534;12.048;2022-08-01T03:14:02;3.47;;;2.60;;
53642;SDS011;39546;45.534;12.048;2022-08-01T03:20:08;3.97;;;2.72;;
53642;SDS011;39546;45.534;12.048;2022-08-01T03:26:14;3.30;;;2.08;;
53642;SDS011;39546;45.534;12.048;2022-08-01T03:32:16;5.65;;;2.72;;
53642;SDS011;39546;45.534;12.048;2022-08-01T03:38:23;3.97;;;2.75;;
53642;SDS011;39546;45.534;12.048;2022-08-01T03:45:02;6.78;;;4.15;;
53642;SDS011;39546;45.534;12.048;2022-08-01T03:51:08;4.23;;;3.10;;
53642;SDS011;39546;45.534;12.048;2022-08-01T03:57:11;4.00;;;2.75;;
53642;SDS011;39546;45.534;12.048;2022-08-01T04:03:15;5.18;;;3.30;;
53642;SDS011;39546;45.534;12.048;2022-08-01T04:09:17;3.83;;;2.72;;
53642;SDS011;39546;45.534;12.048;2022-08-01T04:15:20;5.07;;;2.80;;
53642;SDS011;39546;45.534;12.048;2022-08-01T04:21:22;3.80;;;2.40;;
53642;SDS011;39546;45.534;12.048;2022-08-01T04:27:58;4.68;;;3.42;;
53642;SDS011;39546;45.534;12.048;2022-08-01T04:34:05;3.40;;;2.23;;
53642;SDS011;39546;45.534;12.048;2022-08-01T04:40:08;3.37;;;2.55;;
53642;SDS011;39546;45.534;12.048;2022-08-01T04:46:11;5.62;;;2.80;;
53642;SDS011;39546;45.534;12.048;2022-08-01T04:52:14;4.18;;;2.80;;
53642;SDS011;39546;45.534;12.048;2022-08-01T04:58:20;5.00;;;3.33;;
53642;SDS011;39546;45.534;12.048;2022-08-01T05:04:22;5.40;;;2.58;;
53642;SDS011;39546;45.534;12.048;2022-08-01T05:10:24;4.70;;;3.25;;
53642;SDS011;39546;45.534;12.048;2022-08-01T05:16:27;9.68;;;3.10;;
53642;SDS011;39546;45.534;12.048;2022-08-01T05:22:29;3.17;;;2.22;;
53642;SDS011;39546;45.534;12.048;2022-08-01T05:28:31;2.85;;;1.95;;
53642;SDS011;39546;45.534;12.048;2022-08-01T05:34:34;2.95;;;2.12;;
53642;SDS011;39546;45.534;12.048;2022-08-01T05:40:36;7.57;;;2.47;;
53642;SDS011;39546;45.534;12.048;2022-08-01T05:46:38;4.18;;;2.47;;
53642;SDS011;39546;45.534;12.048;2022-08-01T05:52:41;3.65;;;2.58;;
53642;SDS011;39546;45.534;12.048;2022-08-01T05:58:44;4.18;;;2.55;;
53642;SDS011;39546;45.534;12.048;2022-08-01T06:04:46;3.50;;;2.22;;
53642;SDS011;39546;45.534;12.048;2022-08-01T06:10:48;4.43;;;2.30;;
53642;SDS011;39546;45.534;12.048;2022-08-01T06:17:04;5.40;;;2.95;;
53642;SDS011;39546;45.534;12.048;2022-08-01T06:23:07;2.42;;;1.45;;
53642;SDS011;39546;45.534;12.048;2022-08-01T06:29:10;2.45;;;1.62;;
53642;SDS011;39546;45.534;12.048;2022-08-01T06:41:34;2.08;;;1.33;;
53642;SDS011;39546;45.534;12.048;2022-08-01T06:47:37;3.12;;;1.77;;
53642;SDS011;39546;45.534;12.048;2022-08-01T06:53:41;1.35;;;1.00;;
53642;SDS011;39546;45.534;12.048;2022-08-01T06:59:43;2.12;;;1.45;;
53642;SDS011;39546;45.534;12.048;2022-08-01T07:05:46;3.80;;;1.58;;
53642;SDS011;39546;45.534;12.048;2022-08-01T07:11:48;4.05;;;1.98;;
53642;SDS011;39546;45.534;12.048;2022-08-01T07:17:53;2.25;;;1.52;;
53642;SDS011;39546;45.534;12.048;2022-08-01T07:23:55;2.97;;;0.95;;
53642;SDS011;39546;45.534;12.048;2022-08-01T07:29:58;2.83;;;1.37;;
53642;SDS011;39546;45.534;12.048;2022-08-01T07:36:00;2.90;;;1.20;;
53642;SDS011;39546;45.534;12.048;2022-08-01T07:42:02;3.03;;;1.62;;
53642;SDS011;39546;45.534;12.048;2022-08-01T07:48:09;2.85;;;1.67;;
53642;SDS011;39546;45.534;12.048;2022-08-01T07:54:12;2.75;;;1.50;;
53642;SDS011;39546;45.534;12.048;2022-08-01T08:00:15;1.80;;;1.45;;
53642;SDS011;39546;45.534;12.048;2022-08-01T08:06:32;2.67;;;0.85;;
53642;SDS011;39546;45.534;12.048;2022-08-01T08:12:35;2.25;;;1.48;;
53642;SDS011;39546;45.534;12.048;2022-08-01T08:18:37;2.40;;;1.30;;
53642;SDS011;39546;45.534;12.048;2022-08-01T08:24:40;1.27;;;1.00;;
53642;SDS011;39546;45.534;12.048;2022-08-01T08:30:42;1.70;;;1.20;;
53642;SDS011;39546;45.534;12.048;2022-08-01T08:36:44;2.40;;;1.20;;
53642;SDS011;39546;45.534;12.048;2022-08-01T08:42:47;2.33;;;1.37;;
53642;SDS011;39546;45.534;12.048;2022-08-01T08:48:49;1.67;;;1.33;;
53642;SDS011;39546;45.534;12.048;2022-08-01T08:54:53;1.77;;;0.88;;
53642;SDS011;39546;45.534;12.048;2022-08-01T09:00:56;3.03;;;1.65;;
53642;SDS011;39546;45.534;12.048;2022-08-01T09:06:59;1.60;;;1.45;;
53642;SDS011;39546;45.534;12.048;2022-08-01T09:13:02;0.93;;;0.65;;
53642;SDS011;39546;45.534;12.048;2022-08-01T09:19:16;3.03;;;1.33;;
53642;SDS011;39546;45.534;12.048;2022-08-01T09:25:59;2.08;;;1.15;;
53642;SDS011;39546;45.534;12.048;2022-08-01T09:32:01;3.70;;;2.10;;
53642;SDS011;39546;45.534;12.048;2022-08-01T09:38:17;1.90;;;1.30;;
53642;SDS011;39546;45.534;12.048;2022-08-01T09:44:19;2.50;;;1.75;;
53642;SDS011;39546;45.534;12.048;2022-08-01T09:50:40;3.00;;;1.33;;
53642;SDS011;39546;45.534;12.048;2022-08-01T09:56:44;2.35;;;1.55;;
53642;SDS011;39546;45.534;12.048;2022-08-01T10:02:46;2.47;;;1.45;;
53642;SDS011;39546;45.534;12.048;2022-08-01T10:08:48;2.25;;;1.58;;
53642;SDS011;39546;45.534;12.048;2022-08-01T10:14:50;2.60;;;1.45;;
53642;SDS011;39546;45.534;12.048;2022-08-01T10:20:55;2.58;;;1.60;;
53642;SDS011;39546;45.534;12.048;2022-08-01T10:27:03;1.52;;;1.35;;
53642;SDS011;39546;45.534;12.048;2022-08-01T10:33:07;2.90;;;1.30;;
53642;SDS011;39546;45.534;12.048;2022-08-01T10:39:23;2.70;;;1.52;;
53642;SDS011;39546;45.534;12.048;2022-08-01T10:45:31;1.90;;;1.05;;
53642;SDS011;39546;45.534;12.048;2022-08-01T10:51:35;3.30;;;1.55;;
53642;SDS011;39546;45.534;12.048;2022-08-01T10:57:44;2.28;;;1.50;;
53642;SDS011;39546;45.534;12.048;2022-08-01T11:16:44;1.15;;;0.88;;
53642;SDS011;39546;45.534;12.048;2022-08-01T11:29:12;2.70;;;0.98;;
53642;SDS011;39546;45.534;12.048;2022-08-01T11:35:16;1.87;;;1.12;;
53642;SDS011;39546;45.534;12.048;2022-08-01T11:41:25;1.08;;;0.88;;
53642;SDS011;39546;45.534;12.048;2022-08-01T11:47:54;1.20;;;0.90;;
53642;SDS011;39546;45.534;12.048;2022-08-01T11:53:57;2.37;;;1.05;;
53642;SDS011;39546;45.534;12.048;2022-08-01T12:00:02;2.30;;;1.10;;
53642;SDS011;39546;45.534;12.048;2022-08-01T12:06:13;0.80;;;0.62;;
53642;SDS011;39546;45.534;12.048;2022-08-01T12:12:15;0.98;;;0.70;;
53642;SDS011;39546;45.534;12.048;2022-08-01T12:18:18;1.95;;;0.95;;
53642;SDS011;39546;45.534;12.048;2022-08-01T12:24:21;1.48;;;0.77;;
53642;SDS011;39546;45.534;12.048;2022-08-01T12:30:24;1.08;;;0.80;;
53642;SDS011;39546;45.534;12.048;2022-08-01T12:36:29;2.73;;;0.87;;
53642;SDS011;39546;45.534;12.048;2022-08-01T12:42:31;1.17;;;0.73;;
53642;SDS011;39546;45.534;12.048;2022-08-01T12:55:28;1.58;;;1.15;;
53642;SDS011;39546;45.534;12.048;2022-08-01T13:01:42;3.05;;;1.23;;
53642;SDS011;39546;45.534;12.048;2022-08-01T13:07:46;2.47;;;1.12;;
53642;SDS011;39546;45.534;12.048;2022-08-01T13:13:49;1.52;;;0.73;;
53642;SDS011;39546;45.534;12.048;2022-08-01T13:19:53;2.62;;;1.30;;
53642;SDS011;39546;45.534;12.048;2022-08-01T13:25:56;1.00;;;0.70;;
53642;SDS011;39546;45.534;12.048;2022-08-01T13:32:00;1.02;;;0.70;;
53642;SDS011;39546;45.534;12.048;2022-08-01T13:38:15;1.08;;;0.52;;
53642;SDS011;39546;45.534;12.048;2022-08-01T13:44:17;1.75;;;0.80;;
53642;SDS011;39546;45.534;12.048;2022-08-01T13:50:35;1.90;;;1.23;;
53642;SDS011;39546;45.534;12.048;2022-08-01T13:56:37;0.60;;;0.60;;
53642;SDS011;39546;45.534;12.048;2022-08-01T14:02:43;1.95;;;0.90;;
53642;SDS011;39546;45.534;12.048;2022-08-01T14:08:45;2.67;;;1.00;;
53642;SDS011;39546;45.534;12.048;2022-08-01T14:14:47;0.73;;;0.47;;
53642;SDS011;39546;45.534;12.048;2022-08-01T14:21:07;1.05;;;0.82;;
53642;SDS011;39546;45.534;12.048;2022-08-01T14:27:09;1.00;;;0.70;;
53642;SDS011;39546;45.534;12.048;2022-08-01T14:33:12;4.95;;;1.27;;
53642;SDS011;39546;45.534;12.048;2022-08-01T14:39:24;3.10;;;1.20;;
53642;SDS011;39546;45.534;12.048;2022-08-01T14:45:26;3.90;;;1.00;;
53642;SDS011;39546;45.534;12.048;2022-08-01T14:51:28;1.60;;;0.90;;
53642;SDS011;39546;45.534;12.048;2022-08-01T14:57:35;1.17;;;0.75;;
53642;SDS011;39546;45.534;12.048;2022-08-01T15:03:38;1.45;;;0.80;;
53642;SDS011;39546;45.534;12.048;2022-08-01T15:09:40;4.45;;;0.90;;
53642;SDS011;39546;45.534;12.048;2022-08-01T15:15:43;4.82;;;1.20;;
53642;SDS011;39546;45.534;12.048;2022-08-01T15:22:00;11.55;;;1.40;;
53642;SDS011;39546;45.534;12.048;2022-08-01T15:28:23;7.50;;;1.35;;
53642;SDS011;39546;45.534;12.048;2022-08-01T15:34:26;1.08;;;0.80;;
53642;SDS011;39546;45.534;12.048;2022-08-01T15:40:28;2.28;;;1.12;;
53642;SDS011;39546;45.534;12.048;2022-08-01T15:46:35;4.00;;;1.00;;
53642;SDS011;39546;45.534;12.048;2022-08-01T15:52:38;1.42;;;0.68;;
53642;SDS011;39546;45.534;12.048;2022-08-01T15:58:40;2.92;;;1.02;;
53642;SDS011;39546;45.534;12.048;2022-08-01T16:11:07;5.68;;;1.02;;
53642;SDS011;39546;45.534;12.048;2022-08-01T16:17:09;3.70;;;0.57;;
53642;SDS011;39546;45.534;12.048;2022-08-01T16:23:29;1.65;;;0.65;;
53642;SDS011;39546;45.534;12.048;2022-08-01T16:29:32;1.52;;;0.90;;
53642;SDS011;39546;45.534;12.048;2022-08-01T16:35:36;1.40;;;0.62;;
53642;SDS011;39546;45.534;12.048;2022-08-01T16:41:38;1.25;;;0.70;;
53642;SDS011;39546;45.534;12.048;2022-08-01T16:47:41;1.27;;;0.75;;
53642;SDS011;39546;45.534;12.048;2022-08-01T16:54:04;4.62;;;0.80;;
53642;SDS011;39546;45.534;12.048;2022-08-01T17:00:11;0.93;;;0.43;;
53642;SDS011;39546;45.534;12.048;2022-08-01T17:06:14;0.90;;;0.50;;
53642;SDS011;39546;45.534;12.048;2022-08-01T17:12:16;0.57;;;0.40;;
53642;SDS011;39546;45.534;12.048;2022-08-01T17:18:19;1.50;;;1.00;;
53642;SDS011;39546;45.534;12.048;2022-08-01T17:24:21;2.12;;;0.80;;
53642;SDS011;39546;45.534;12.048;2022-08-01T17:30:23;1.58;;;0.60;;
53642;SDS011;39546;45.534;12.048;2022-08-01T17:36:32;0.30;;;0.30;;
53642;SDS011;39546;45.534;12.048;2022-08-01T17:42:35;1.37;;;0.75;;
53642;SDS011;39546;45.534;12.048;2022-08-01T17:48:37;5.40;;;0.80;;
53642;SDS011;39546;45.534;12.048;2022-08-01T17:54:39;0.88;;;0.55;;
53642;SDS011;39546;45.534;12.048;2022-08-01T18:00:41;1.52;;;0.95;;
53642;SDS011;39546;45.534;12.048;2022-08-01T18:06:44;3.05;;;0.77;;
53642;SDS011;39546;45.534;12.048;2022-08-01T18:12:46;0.75;;;0.30;;
53642;SDS011;39546;45.534;12.048;2022-08-01T18:18:48;1.37;;;0.73;;
53642;SDS011;39546;45.534;12.048;2022-08-01T18:24:51;2.47;;;0.60;;
53642;SDS011;39546;45.534;12.048;2022-08-01T18:30:53;1.45;;;0.70;;
53642;SDS011;39546;45.534;12.048;2022-08-01T18:36:59;1.83;;;0.70;;
53642;SDS011;39546;45.534;12.048;2022-08-01T18:43:01;1.10;;;0.55;;
53642;SDS011;39546;45.534;12.048;2022-08-01T18:49:03;1.80;;;0.52;;
53642;SDS011;39546;45.534;12.048;2022-08-01T18:55:07;5.85;;;1.17;;
53642;SDS011;39546;45.534;12.048;2022-08-01T19:01:09;1.95;;;0.88;;
53642;SDS011;39546;45.534;12.048;2022-08-01T19:07:13;0.35;;;0.30;;
53642;SDS011;39546;45.534;12.048;2022-08-01T19:13:16;3.30;;;0.80;;
53642;SDS011;39546;45.534;12.048;2022-08-01T19:19:18;4.03;;;0.93;;
53642;SDS011;39546;45.534;12.048;2022-08-01T19:25:20;1.98;;;0.70;;
53642;SDS011;39546;45.534;12.048;2022-08-01T19:31:25;0.62;;;0.62;;
53642;SDS011;39546;45.534;12.048;2022-08-01T19:37:29;1.70;;;0.57;;
53642;SDS011;39546;45.534;12.048;2022-08-01T19:43:34;1.15;;;0.60;;
53642;SDS011;39546;45.534;12.048;2022-08-01T19:49:40;1.83;;;0.57;;
53642;SDS011;39546;45.534;12.048;2022-08-01T19:55:42;4.20;;;1.05;;
53642;SDS011;39546;45.534;12.048;2022-08-01T20:01:48;2.35;;;1.00;;
53642;SDS011;39546;45.534;12.048;2022-08-01T20:07:53;0.55;;;0.55;;
53642;SDS011;39546;45.534;12.048;2022-08-01T20:13:56;1.08;;;0.57;;
53642;SDS011;39546;45.534;12.048;2022-08-01T20:19:59;1.67;;;0.80;;
53642;SDS011;39546;45.534;12.048;2022-08-01T20:26:02;2.22;;;0.85;;
53642;SDS011;39546;45.534;12.048;2022-08-01T20:32:05;1.75;;;0.80;;
53642;SDS011;39546;45.534;12.048;2022-08-01T20:38:07;0.50;;;0.32;;
53642;SDS011;39546;45.534;12.048;2022-08-01T20:44:11;1.80;;;1.20;;
53642;SDS011;39546;45.534;12.048;2022-08-01T20:50:14;1.27;;;0.68;;
53642;SDS011;39546;45.534;12.048;2022-08-01T20:56:38;2.10;;;0.70;;
53642;SDS011;39546;45.534;12.048;2022-08-01T21:02:53;0.47;;;0.37;;
53642;SDS011;39546;45.534;12.048;2022-08-01T21:09:12;0.52;;;0.40;;
53642;SDS011;39546;45.534;12.048;2022-08-01T21:21:31;3.42;;;0.85;;
53642;SDS011;39546;45.534;12.048;2022-08-01T21:27:37;0.40;;;0.37;;
53642;SDS011;39546;45.534;12.048;2022-08-01T21:33:41;1.17;;;0.73;;
53642;SDS011;39546;45.534;12.048;2022-08-01T21:39:44;0.60;;;0.40;;
53642;SDS011;39546;45.534;12.048;2022-08-01T21:45:47;0.98;;;0.52;;
53642;SDS011;39546;45.534;12.048;2022-08-01T21:51:52;0.32;;;0.32;;
53642;SDS011;39546;45.534;12.048;2022-08-01T22:04:13;2.42;;;0.57;;
53642;SDS011;39546;45.534;12.048;2022-08-01T22:10:17;1.00;;;0.60;;
53642;SDS011;39546;45.534;12.048;2022-08-01T22:16:20;1.55;;;0.75;;
53642;SDS011;39546;45.534;12.048;2022-08-01T22:22:24;1.10;;;0.80;;
53642;SDS011;39546;45.534;12.048;2022-08-01T22:28:28;1.02;;;0.62;;
53642;SDS011;39546;45.534;12.048;2022-08-01T22:34:34;1.27;;;0.73;;
53642;SDS011;39546;45.534;12.048;2022-08-01T22:40:46;1.58;;;0.70;;
53642;SDS011;39546;45.534;12.048;2022-08-01T22:47:23;0.90;;;0.68;;
53642;SDS011;39546;45.534;12.048;2022-08-01T23:00:04;0.82;;;0.82;;
53642;SDS011;39546;45.534;12.048;2022-08-01T23:06:09;1.10;;;0.70;;
53642;SDS011;39546;45.534;12.048;2022-08-01T23:12:13;3.87;;;0.88;;
53642;SDS011;39546;45.534;12.048;2022-08-01T23:18:19;1.05;;;0.70;;
53642;SDS011;39546;45.534;12.048;2022-08-01T23:24:22;1.67;;;0.93;;
53642;SDS011;39546;45.534;12.048;2022-08-01T23:30:26;2.83;;;1.25;;
53642;SDS011;39546;45.534;12.048;2022-08-01T23:36:30;2.60;;;1.35;;
53642;SDS011;39546;45.534;12.048;2022-08-01T23:42:32;1.10;;;0.77;;
53642;SDS011;39546;45.534;12.048;2022-08-01T23:48:34;0.95;;;0.57;;
53642;SDS011;39546;45.534;12.048;2022-08-01T23:54:37;1.92;;;1.15;;
